Latest Weather Observations for Fowlers Gap

IDN60801

Issued at 8:02 am EDT Wednesday 22 February 2017 (issued every 30 minutes, with the page automatically refreshed every 10 minutes)

About weather observations | Map of weather stations | Latest weather observations for NSW | Other Formats
Station Details ID: 046128 Name: FOWLERS GAP AWS Lat: -31.09 Lon: 141.70 Height: 181.0 m
Data from the previous 72 hours. | See also: Recent months at Fowlers Gap
Date/Time
EDT
Temp
°C
App
Temp
°C
Dew
Point
°C
Rel
Hum
%
Delta-T
°C
Wind Press
QNH
hPa
Press
MSL
hPa
Rain since
9am
mm
Dir  Spd
km/h
Gust
km/h
Spd
kts
Gust
kts
22/08:00am 17.1 13.7 -2.0 27 8.0 S 6 7 3 4 1014.5 1013.5 0.0
22/07:30am 15.9 12.4 -2.6 28 7.5 S 6 7 3 4 1014.2 1013.2 0.0
22/07:00am 15.8 13.1 -2.2 29 7.4 ESE 2 7 1 4 1013.9 1012.8 0.0
22/06:30am 15.9 12.8 -2.6 28 7.5 SSW 4 7 2 4 1013.7 1012.6 0.0
22/06:00am 16.1 13.8 -2.4 28 7.6 CALM 0 0 0 0 1013.6 1012.5 0.0
22/05:30am 16.1 13.8 -2.4 28 7.6 CALM 0 0 0 0 1013.4 1012.3 0.0
22/05:00am 16.3 12.9 -2.2 28 7.6 SW 6 7 3 4 1013.5 1012.4 0.0
22/04:30am 16.7 14.4 -2.4 27 7.9 CALM 0 0 0 0 1013.4 1012.3 0.0
22/04:00am 17.4 15.0 -2.8 25 8.3 CALM 0 0 0 0 1013.4 1012.3 0.0
22/03:30am 18.0 14.4 -2.3 25 8.5 E 7 9 4 5 1013.7 1012.6 0.0
22/03:00am 18.3 14.3 -2.0 25 8.6 ENE 9 11 5 6 1013.9 1012.8 0.0
22/02:30am 19.1 15.4 -2.5 23 9.1 ENE 7 9 4 5 1014.3 1013.3 0.0
22/02:00am 20.9 16.5 -2.2 21 9.9 ENE 11 11 6 6 1014.6 1013.6 0.0
22/01:30am 21.0 17.0 -2.1 21 10.0 ENE 9 11 5 6 1014.8 1013.8 0.0
22/01:00am 21.4 17.5 -1.8 21 10.1 ENE 9 11 5 6 1015.2 1014.1 0.0
22/12:30am 21.8 18.2 -2.1 20 10.4 ENE 7 9 4 5 1015.4 1014.3 0.0
22/12:00am 21.8 18.1 -2.8 19 10.5 ENE 7 9 4 5 1015.6 1014.5 0.0
 
Date/Time
EDT
Temp
°C
App
Temp
°C
Dew
Point
°C
Rel
Hum
%
Delta-T
°C
Wind Press
QNH
hPa
Press
MSL
hPa
Rain since
9am
mm
Dir  Spd
km/h
Gust
km/h
Spd
kts
Gust
kts
21/11:30pm 23.7 20.1 -2.0 18 11.4 NE 7 9 4 5 1015.7 1014.6 0.0
21/11:00pm 24.4 20.4 -2.2 17 11.8 NE 9 9 5 5 1015.7 1014.6 0.0
21/10:30pm 24.5 20.9 -2.1 17 11.8 NE 7 9 4 5 1015.7 1014.6 0.0
21/10:00pm 25.0 21.5 -1.7 17 12.0 ENE 7 9 4 5 1015.7 1014.6 0.0
21/09:30pm 26.0 22.1 -1.7 16 12.6 ENE 9 9 5 5 1015.5 1014.4 0.0
21/09:00pm 27.1 23.6 -1.7 15 13.2 ENE 7 9 4 5 1015.3 1014.2 0.0
21/08:30pm 28.4 24.4 -2.6 13 14.1 ENE 9 13 5 7 1015.1 1014.0 0.0
21/08:00pm 29.7 24.9 -2.7 12 14.8 ENE 13 17 7 9 1014.7 1013.7 0.0
21/07:30pm 30.2 24.5 -3.5 11 15.3 NE 17 24 9 13 1014.4 1013.4 0.0
21/07:00pm 30.1 25.2 -3.6 11 15.2 ENE 13 19 7 10 1014.4 1013.4 0.0
21/06:30pm 30.7 26.2 -3.1 11 15.5 NE 11 15 6 8 1014.4 1013.4 0.0
21/06:00pm 30.6 26.1 -3.2 11 15.5 ESE 11 17 6 9 1014.5 1013.5 0.0
21/05:30pm 30.7 27.0 -3.1 11 15.5 SSE 7 26 4 14 1014.5 1013.5 0.0
21/05:00pm 30.0 25.1 -3.6 11 15.2 ESE 13 19 7 10 1014.9 1013.9 0.0
21/04:30pm 30.4 25.9 -3.3 11 15.4 NE 11 19 6 10 1015.2 1014.1 0.0
21/04:00pm 29.3 24.4 -3.0 12 14.7 ESE 13 24 7 13 1015.5 1014.4 0.0
21/03:30pm 29.7 24.0 -3.9 11 15.1 ESE 17 26 9 14 1016.0 1014.9 0.0
21/03:00pm 29.0 24.5 -3.2 12 14.5 ESE 11 17 6 9 1016.5 1015.4 0.0
21/02:30pm 28.0 24.5 -3.0 13 13.9 W 6 11 3 6 1017.0 1015.9 0.0
21/02:00pm 28.3 24.6 -2.7 13 14.0 ENE 7 20 4 11 1017.6 1016.5 0.0
21/01:30pm 26.3 21.1 -2.4 15 12.9 NE 15 20 8 11 1018.2 1017.1 0.0
21/01:00pm 26.7 22.7 -2.1 15 13.0 ESE 9 20 5 11 1018.4 1017.3 0.0
21/12:30pm 25.9 21.2 -1.8 16 12.5 E 13 20 7 11 1018.9 1017.8 0.0
21/12:00pm 25.4 21.1 -1.4 17 12.1 NE 11 17 6 9 1019.4 1018.4 0.0
21/11:30am 25.1 20.1 -0.9 18 11.9 NE 15 28 8 15 1019.7 1018.7 0.0
21/11:00am 24.3 19.1 -0.1 20 11.2 E 17 22 9 12 1019.7 1018.7 0.0
21/10:30am 23.5 18.7 -0.1 21 10.8 ENE 15 22 8 12 1020.0 1019.0 0.0
21/10:00am 22.4 17.6 0.3 23 10.1 ENE 15 24 8 13 1020.0 1019.0 0.0
21/09:30am 21.2 16.4 -0.1 24 9.6 ENE 15 20 8 11 1019.9 1018.9 0.0
21/09:00am 20.1 15.6 0.0 26 8.9 E 13 17 7 9 1019.8 1018.8 0.0
21/08:30am 17.6 15.3 0.7 32 7.5 WNW 2 6 1 3 1019.5 1018.5 0.0
21/08:00am 15.9 12.7 0.5 35 6.7 SW 7 9 4 5 1018.9 1017.8 0.0
21/07:30am 17.4 13.0 0.6 32 7.4 ESE 13 17 7 9 1018.3 1017.2 0.0
21/07:00am 14.3 11.2 0.2 38 6.0 SSW 6 7 3 4 1018.1 1017.0 0.0
21/06:30am 14.6 11.0 0.5 38 6.1 WSW 9 11 5 6 1018.0 1016.9 0.0
21/06:00am 14.9 11.8 0.4 37 6.2 SW 6 7 3 4 1017.4 1016.3 0.0
21/05:30am 15.0 11.7 0.1 36 6.4 WSW 7 9 4 5 1017.4 1016.3 0.0
21/05:00am 15.1 12.0 0.2 36 6.4 S 6 7 3 4 1017.2 1016.1 0.0
21/04:30am 15.3 12.0 -0.1 35 6.6 S 7 9 4 5 1016.9 1015.8 0.0
21/04:00am 16.3 12.7 0.4 34 6.9 SSE 9 11 5 6 1016.8 1015.7 0.0
21/03:30am 17.0 12.9 -0.2 31 7.4 SSE 11 15 6 8 1016.9 1015.8 0.0
21/03:00am 18.0 14.0 0.6 31 7.7 SSE 11 13 6 7 1017.0 1015.9 0.0
21/02:30am 18.3 14.3 0.4 30 7.9 SSE 11 13 6 7 1017.3 1016.2 0.0
21/02:00am 19.0 14.3 0.6 29 8.2 SE 15 20 8 11 1017.5 1016.4 0.0
21/01:30am 19.3 14.6 0.8 29 8.3 SE 15 19 8 10 1017.6 1016.5 0.0
21/01:00am 19.4 14.7 0.9 29 8.3 SE 15 20 8 11 1017.7 1016.6 0.0
21/12:30am 19.7 15.0 0.7 28 8.6 SE 15 20 8 11 1018.0 1016.9 0.0
21/12:00am 20.4 14.7 0.8 27 8.9 SE 20 24 11 13 1018.0 1016.9 0.0
 
Date/Time
EDT
Temp
°C
App
Temp
°C
Dew
Point
°C
Rel
Hum
%
Delta-T
°C
Wind Press
QNH
hPa
Press
MSL
hPa
Rain since
9am
mm
Dir  Spd
km/h
Gust
km/h
Spd
kts
Gust
kts
20/11:30pm 20.9 16.6 0.7 26 9.2 SE 13 17 7 9 1017.9 1016.8 0.0
20/11:00pm 21.3 17.0 1.0 26 9.3 SE 13 17 7 9 1017.8 1016.7 0.0
20/10:30pm 21.8 17.5 0.9 25 9.6 SE 13 17 7 9 1017.7 1016.6 0.0
20/10:00pm 22.1 17.9 1.7 26 9.5 SE 13 17 7 9 1017.4 1016.3 0.0
20/09:30pm 22.7 19.1 2.8 27 9.6 SE 11 15 6 8 1017.0 1015.9 0.0
20/09:00pm 23.2 18.9 3.2 27 9.7 ESE 15 20 8 11 1016.6 1015.5 0.0
20/08:30pm 23.6 18.9 3.0 26 10.0 SE 17 24 9 13 1016.3 1015.2 0.0
20/08:00pm 24.3 19.6 3.0 25 10.4 SE 17 24 9 13 1015.7 1014.6 0.0
20/07:30pm 25.0 20.7 3.0 24 10.8 SSE 15 22 8 12 1015.1 1014.0 0.0
20/07:00pm 25.7 21.8 3.6 24 11.0 SSE 13 24 7 13 1014.6 1013.6 0.0
20/06:30pm 25.2 21.3 3.2 24 10.8 SE 13 24 7 13 1014.4 1013.4 0.0
20/06:00pm 26.0 23.0 3.9 24 11.1 SSE 9 20 5 11 1014.3 1013.3 0.0
20/05:30pm 25.1 21.0 2.5 23 11.0 SSE 13 22 7 12 1014.4 1013.4 0.0
20/05:00pm 25.5 21.2 3.5 24 10.9 SW 15 28 8 15 1014.3 1013.3 0.0
20/04:30pm 25.0 20.8 3.6 25 10.6 SSE 15 24 8 13 1014.3 1013.3 0.0
20/04:00pm 24.4 20.4 3.1 25 10.4 ESE 13 26 7 14 1014.7 1013.7 0.0
20/03:30pm 24.2 21.2 4.0 27 10.0 SSW 9 19 5 10 1015.1 1014.0 0.0
20/03:00pm 24.5 19.8 3.2 25 10.4 S 17 30 9 16 1015.5 1014.4 0.0
20/02:30pm 24.6 21.4 4.9 28 10.0 SW 11 22 6 12 1015.7 1014.6 0.0
20/02:00pm 23.1 18.7 4.6 30 9.2 S 17 24 9 13 1016.1 1015.0 0.0
20/01:30pm 22.7 17.7 4.7 31 9.0 S 20 32 11 17 1016.5 1015.4 0.0
20/01:00pm 23.0 19.2 5.9 33 8.7 SSW 15 26 8 14 1016.7 1015.6 0.0
20/12:30pm 21.8 17.6 5.7 35 8.1 S 17 24 9 13 1017.2 1016.1 0.0
20/12:00pm 20.9 16.7 5.7 37 7.6 S 17 26 9 14 1017.3 1016.2 0.0
20/11:30am 19.9 15.2 5.9 40 7.0 SSE 20 32 11 17 1017.5 1016.4 0.0
20/11:00am 19.2 14.6 6.3 43 6.5 SSE 20 28 11 15 1017.9 1016.8 0.0
20/10:30am 18.2 13.2 6.4 46 5.9 SE 22 33 12 18 1017.9 1016.8 0.0
20/10:00am 17.8 12.4 6.3 47 5.7 SSE 24 30 13 16 1017.8 1016.7 0.0
20/09:30am 17.1 12.1 6.3 49 5.3 SSE 22 30 12 16 1017.8 1016.7 0.0
20/09:00am 16.4 11.9 6.8 53 4.8 SSE 20 26 11 14 1017.8 1016.7 0.0
20/08:30am 16.0 12.0 6.7 54 4.6 S 17 26 9 14 1017.5 1016.4 0.0
20/08:00am 15.0 12.1 6.3 56 4.2 S 11 19 6 10 1017.1 1016.0 0.0
20/07:30am 14.4 11.7 5.7 56 4.2 S 9 17 5 9 1016.7 1015.6 0.0
20/07:00am 14.8 11.1 6.1 56 4.2 SSE 15 22 8 12 1016.4 1015.3 0.0
20/06:30am 15.1 10.9 5.9 54 4.5 SSE 17 24 9 13 1016.2 1015.1 0.0
20/06:00am 15.4 11.9 5.6 52 4.7 SSE 13 19 7 10 1016.1 1015.0 0.0
20/05:30am 15.9 12.0 5.5 50 5.0 S 15 24 8 13 1015.9 1014.8 0.0
20/05:00am 16.2 12.3 5.5 49 5.2 SSE 15 20 8 11 1015.5 1014.4 0.0
20/04:30am 16.3 12.6 4.4 45 5.6 S 13 17 7 9 1015.3 1014.2 0.0
20/04:00am 17.2 12.8 4.5 43 6.1 S 17 20 9 11 1015.3 1014.2 0.0
20/03:30am 17.8 13.0 4.4 41 6.4 SSW 19 26 10 14 1015.2 1014.1 0.0
20/03:00am 16.3 13.2 3.7 43 5.9 SW 9 13 5 7 1014.9 1013.9 0.0
20/02:30am 16.9 14.3 3.2 40 6.4 SW 6 9 3 5 1015.1 1014.0 0.0
20/02:00am 17.0 14.1 2.6 38 6.6 SW 7 9 4 5 1014.8 1013.8 0.0
20/01:30am 18.1 14.2 3.2 37 7.0 SSE 13 15 7 8 1014.9 1013.9 0.0
20/01:00am 18.7 14.3 2.9 35 7.4 S 15 20 8 11 1014.8 1013.8 0.0
20/12:30am 18.9 14.9 3.1 35 7.4 S 13 17 7 9 1014.9 1013.9 0.0
20/12:00am 19.7 15.4 3.0 33 7.9 S 15 20 8 11 1014.9 1013.9 0.0
 
Date/Time
EDT
Temp
°C
App
Temp
°C
Dew
Point
°C
Rel
Hum
%
Delta-T
°C
Wind Press
QNH
hPa
Press
MSL
hPa
Rain since
9am
mm
Dir  Spd
km/h
Gust
km/h
Spd
kts
Gust
kts
19/11:30pm 19.4 15.4 2.7 33 7.8 SSW 13 15 7 8 1014.9 1013.9 0.0
19/11:00pm 19.6 15.6 2.9 33 7.9 SSW 13 15 7 8 1014.7 1013.7 0.0
19/10:30pm 20.2 16.5 2.5 31 8.3 SSW 11 15 6 8 1014.6 1013.6 0.0
19/10:00pm 20.9 16.9 2.7 30 8.6 SW 13 17 7 9 1014.4 1013.4 0.0
19/09:30pm 21.6 16.5 2.8 29 9.0 SW 19 24 10 13 1014.0 1012.9 0.0
19/09:00pm 22.2 16.9 2.8 28 9.3 SW 20 32 11 17 1013.7 1012.6 0.0
19/08:30pm 22.7 17.3 2.2 26 9.7 SW 20 30 11 16 1013.5 1012.4 0.0
19/08:00pm 23.4 17.1 1.7 24 10.3 SW 24 32 13 17 1013.2 1012.1 0.0
19/07:30pm 24.1 18.3 2.3 24 10.5 SW 22 32 12 17 1013.0 1011.9 0.0
19/07:00pm 24.2 17.9 1.8 23 10.7 SW 24 33 13 18 1012.8 1011.7 0.0
19/06:30pm 24.6 18.4 2.1 23 10.8 SW 24 32 13 17 1012.7 1011.6 0.0
19/06:00pm 24.5 18.3 2.0 23 10.8 SW 24 35 13 19 1012.7 1011.6 0.0
19/05:30pm 24.5 17.9 2.0 23 10.8 SW 26 41 14 22 1012.7 1011.6 0.0
19/05:00pm 24.4 18.8 1.3 22 10.9 S 20 30 11 16 1012.7 1011.6 0.0
19/04:30pm 25.3 19.4 1.4 21 11.4 SW 22 33 12 18 1012.9 1011.8 0.0
19/04:00pm 23.9 18.2 0.3 21 10.9 SSW 20 35 11 19 1013.1 1012.0 0.0
19/03:30pm 23.9 18.5 1.5 23 10.6 SW 19 32 10 17 1013.3 1012.2 0.0
19/03:00pm 23.2 17.5 0.3 22 10.5 SW 20 30 11 16 1013.8 1012.7 0.0
19/02:30pm 22.3 16.6 0.8 24 9.9 SW 20 32 11 17 1014.0 1012.9 0.0
19/02:00pm 22.5 18.3 1.5 25 9.8 SW 13 26 7 14 1014.4 1013.4 0.0
19/01:30pm 20.9 14.9 1.2 27 9.1 S 22 32 12 17 1014.9 1013.9 0.0
19/01:00pm 20.1 15.0 1.0 28 8.7 SSW 17 33 9 18 1015.4 1014.3 0.0
19/12:30pm 19.8 13.8 1.3 29 8.5 SSW 22 35 12 19 1015.8 1014.7 0.0
19/12:00pm 20.9 15.7 2.7 30 8.6 SSW 19 28 10 15 1016.3 1015.2 0.0
19/11:30am 19.8 14.6 2.2 31 8.2 S 19 28 10 15 1016.8 1015.7 0.0
19/11:00am 18.5 12.3 1.9 33 7.6 S 24 37 13 20 1017.0 1015.9 0.0
19/10:30am 18.0 11.8 1.9 34 7.3 S 24 32 13 17 1016.7 1015.6 0.0
19/10:00am 17.5 10.9 1.9 35 7.1 S 26 35 14 19 1016.8 1015.7 0.0
19/09:30am 17.3 11.5 2.5 37 6.8 SSE 22 28 12 15 1016.7 1015.6 0.0
19/09:00am 16.0 9.6 3.4 43 5.8 S 26 35 14 19 1016.4 1015.3 0.0
19/08:30am 15.6 10.2 4.3 47 5.3 SSE 22 30 12 16 1016.2 1015.1 0.0

Other Formats:

Comma delimited format used in spreadsheet applications
http://www.bom.gov.au/fwo/IDN60801/IDN60801.94686.axf

JavaScript Object Notation format (JSON) in row-major order
http://www.bom.gov.au/fwo/IDN60801/IDN60801.94686.json